sensor_id;sensor_type;location;lat;lon;timestamp;P1;durP1;ratioP1;P2;durP2;ratioP2
5225;SDS011;2632;51.666;7.146;2023-04-03T00:01:15;8.70;;;3.50;;
5225;SDS011;2632;51.666;7.146;2023-04-03T00:03:42;6.67;;;3.43;;
5225;SDS011;2632;51.666;7.146;2023-04-03T00:06:09;6.47;;;3.37;;
5225;SDS011;2632;51.666;7.146;2023-04-03T00:08:37;4.53;;;3.30;;
5225;SDS011;2632;51.666;7.146;2023-04-03T00:11:05;9.30;;;3.37;;
5225;SDS011;2632;51.666;7.146;2023-04-03T00:13:32;5.33;;;2.80;;
5225;SDS011;2632;51.666;7.146;2023-04-03T00:15:59;5.40;;;3.13;;
5225;SDS011;2632;51.666;7.146;2023-04-03T00:18:26;5.73;;;2.57;;
5225;SDS011;2632;51.666;7.146;2023-04-03T00:20:52;5.00;;;2.90;;
5225;SDS011;2632;51.666;7.146;2023-04-03T00:23:19;6.90;;;2.73;;
5225;SDS011;2632;51.666;7.146;2023-04-03T00:25:45;6.90;;;2.47;;
5225;SDS011;2632;51.666;7.146;2023-04-03T00:28:12;3.07;;;2.40;;
5225;SDS011;2632;51.666;7.146;2023-04-03T00:30:39;6.13;;;2.13;;
5225;SDS011;2632;51.666;7.146;2023-04-03T00:33:05;2.97;;;1.73;;
5225;SDS011;2632;51.666;7.146;2023-04-03T00:35:33;3.17;;;1.73;;
5225;SDS011;2632;51.666;7.146;2023-04-03T00:38:01;5.30;;;1.97;;
5225;SDS011;2632;51.666;7.146;2023-04-03T00:40:27;3.80;;;1.87;;
5225;SDS011;2632;51.666;7.146;2023-04-03T00:43:14;5.33;;;1.90;;
5225;SDS011;2632;51.666;7.146;2023-04-03T00:45:46;4.80;;;1.77;;
5225;SDS011;2632;51.666;7.146;2023-04-03T00:48:22;3.43;;;1.90;;
5225;SDS011;2632;51.666;7.146;2023-04-03T00:50:55;3.23;;;1.70;;
5225;SDS011;2632;51.666;7.146;2023-04-03T00:53:23;4.03;;;1.97;;
5225;SDS011;2632;51.666;7.146;2023-04-03T00:55:56;4.27;;;1.50;;
5225;SDS011;2632;51.666;7.146;2023-04-03T00:58:27;4.63;;;1.53;;
5225;SDS011;2632;51.666;7.146;2023-04-03T01:01:03;2.40;;;1.63;;
5225;SDS011;2632;51.666;7.146;2023-04-03T01:03:33;2.13;;;1.20;;
5225;SDS011;2632;51.666;7.146;2023-04-03T01:06:01;2.50;;;1.53;;
5225;SDS011;2632;51.666;7.146;2023-04-03T01:08:28;6.33;;;1.67;;
5225;SDS011;2632;51.666;7.146;2023-04-03T01:10:55;4.47;;;1.67;;
5225;SDS011;2632;51.666;7.146;2023-04-03T01:13:27;2.50;;;1.20;;
5225;SDS011;2632;51.666;7.146;2023-04-03T01:15:56;1.67;;;1.17;;
5225;SDS011;2632;51.666;7.146;2023-04-03T01:18:23;6.00;;;1.30;;
5225;SDS011;2632;51.666;7.146;2023-04-03T01:23:32;3.47;;;1.50;;
5225;SDS011;2632;51.666;7.146;2023-04-03T01:26:11;4.17;;;1.90;;
5225;SDS011;2632;51.666;7.146;2023-04-03T01:28:38;13.10;;;3.60;;
5225;SDS011;2632;51.666;7.146;2023-04-03T01:33:57;5.80;;;1.50;;
5225;SDS011;2632;51.666;7.146;2023-04-03T01:36:25;3.80;;;1.40;;
5225;SDS011;2632;51.666;7.146;2023-04-03T01:38:54;4.27;;;1.37;;
5225;SDS011;2632;51.666;7.146;2023-04-03T01:41:22;9.13;;;1.57;;
5225;SDS011;2632;51.666;7.146;2023-04-03T01:43:49;2.10;;;1.10;;
5225;SDS011;2632;51.666;7.146;2023-04-03T01:46:16;5.60;;;1.13;;
5225;SDS011;2632;51.666;7.146;2023-04-03T01:48:43;3.60;;;1.27;;
5225;SDS011;2632;51.666;7.146;2023-04-03T01:51:10;6.80;;;1.23;;
5225;SDS011;2632;51.666;7.146;2023-04-03T01:53:37;5.03;;;1.50;;
5225;SDS011;2632;51.666;7.146;2023-04-03T01:56:03;1.50;;;1.07;;
5225;SDS011;2632;51.666;7.146;2023-04-03T01:58:31;3.13;;;1.00;;
5225;SDS011;2632;51.666;7.146;2023-04-03T02:00:57;4.57;;;1.10;;
5225;SDS011;2632;51.666;7.146;2023-04-03T02:03:24;3.40;;;1.07;;
5225;SDS011;2632;51.666;7.146;2023-04-03T02:05:51;2.63;;;1.30;;
5225;SDS011;2632;51.666;7.146;2023-04-03T02:08:17;2.90;;;1.63;;
5225;SDS011;2632;51.666;7.146;2023-04-03T02:10:46;3.50;;;1.40;;
5225;SDS011;2632;51.666;7.146;2023-04-03T02:13:14;4.47;;;1.13;;
5225;SDS011;2632;51.666;7.146;2023-04-03T02:15:41;3.67;;;1.40;;
5225;SDS011;2632;51.666;7.146;2023-04-03T02:18:08;5.47;;;1.30;;
5225;SDS011;2632;51.666;7.146;2023-04-03T02:20:36;3.97;;;1.37;;
5225;SDS011;2632;51.666;7.146;2023-04-03T02:23:03;3.87;;;1.70;;
5225;SDS011;2632;51.666;7.146;2023-04-03T02:25:31;2.00;;;1.20;;
5225;SDS011;2632;51.666;7.146;2023-04-03T02:28:00;1.87;;;1.20;;
5225;SDS011;2632;51.666;7.146;2023-04-03T02:30:26;3.30;;;1.33;;
5225;SDS011;2632;51.666;7.146;2023-04-03T02:32:53;2.67;;;1.10;;
5225;SDS011;2632;51.666;7.146;2023-04-03T02:35:20;3.70;;;1.30;;
5225;SDS011;2632;51.666;7.146;2023-04-03T02:37:47;4.67;;;1.53;;
5225;SDS011;2632;51.666;7.146;2023-04-03T02:40:14;1.97;;;1.20;;
5225;SDS011;2632;51.666;7.146;2023-04-03T02:42:41;2.37;;;1.17;;
5225;SDS011;2632;51.666;7.146;2023-04-03T02:45:07;2.60;;;1.50;;
5225;SDS011;2632;51.666;7.146;2023-04-03T02:47:34;4.17;;;1.40;;
5225;SDS011;2632;51.666;7.146;2023-04-03T02:50:01;5.43;;;1.80;;
5225;SDS011;2632;51.666;7.146;2023-04-03T02:52:28;8.67;;;1.50;;
5225;SDS011;2632;51.666;7.146;2023-04-03T02:54:54;4.47;;;1.47;;
5225;SDS011;2632;51.666;7.146;2023-04-03T02:57:21;5.83;;;1.30;;
5225;SDS011;2632;51.666;7.146;2023-04-03T02:59:48;10.00;;;1.80;;
5225;SDS011;2632;51.666;7.146;2023-04-03T03:02:15;4.20;;;1.10;;
5225;SDS011;2632;51.666;7.146;2023-04-03T03:04:41;8.40;;;1.20;;
5225;SDS011;2632;51.666;7.146;2023-04-03T03:07:08;4.20;;;1.63;;
5225;SDS011;2632;51.666;7.146;2023-04-03T03:09:35;2.20;;;1.30;;
5225;SDS011;2632;51.666;7.146;2023-04-03T03:12:02;4.10;;;1.50;;
5225;SDS011;2632;51.666;7.146;2023-04-03T03:14:29;3.93;;;1.43;;
5225;SDS011;2632;51.666;7.146;2023-04-03T03:16:56;5.13;;;1.63;;
5225;SDS011;2632;51.666;7.146;2023-04-03T03:19:23;5.60;;;1.60;;
5225;SDS011;2632;51.666;7.146;2023-04-03T03:21:49;4.27;;;1.30;;
5225;SDS011;2632;51.666;7.146;2023-04-03T03:24:17;2.43;;;1.13;;
5225;SDS011;2632;51.666;7.146;2023-04-03T03:26:43;3.60;;;1.63;;
5225;SDS011;2632;51.666;7.146;2023-04-03T03:29:10;4.57;;;1.40;;
5225;SDS011;2632;51.666;7.146;2023-04-03T03:31:37;3.83;;;2.17;;
5225;SDS011;2632;51.666;7.146;2023-04-03T03:34:03;6.10;;;2.90;;
5225;SDS011;2632;51.666;7.146;2023-04-03T03:36:30;5.47;;;2.50;;
5225;SDS011;2632;51.666;7.146;2023-04-03T03:38:57;4.70;;;2.10;;
5225;SDS011;2632;51.666;7.146;2023-04-03T03:41:24;8.30;;;2.33;;
5225;SDS011;2632;51.666;7.146;2023-04-03T03:43:51;4.53;;;1.97;;
5225;SDS011;2632;51.666;7.146;2023-04-03T03:46:17;7.03;;;2.20;;
5225;SDS011;2632;51.666;7.146;2023-04-03T03:48:44;2.90;;;1.90;;
5225;SDS011;2632;51.666;7.146;2023-04-03T03:51:11;10.40;;;2.00;;
5225;SDS011;2632;51.666;7.146;2023-04-03T03:53:37;5.93;;;2.27;;
5225;SDS011;2632;51.666;7.146;2023-04-03T03:56:04;5.13;;;1.90;;
5225;SDS011;2632;51.666;7.146;2023-04-03T03:58:31;3.70;;;1.50;;
5225;SDS011;2632;51.666;7.146;2023-04-03T04:01:02;4.20;;;1.40;;
5225;SDS011;2632;51.666;7.146;2023-04-03T04:03:30;2.90;;;1.80;;
5225;SDS011;2632;51.666;7.146;2023-04-03T04:05:56;2.97;;;1.40;;
5225;SDS011;2632;51.666;7.146;2023-04-03T04:08:23;3.43;;;1.23;;
5225;SDS011;2632;51.666;7.146;2023-04-03T04:10:50;6.67;;;1.40;;
5225;SDS011;2632;51.666;7.146;2023-04-03T04:13:17;4.17;;;1.40;;
5225;SDS011;2632;51.666;7.146;2023-04-03T04:15:44;3.77;;;1.93;;
5225;SDS011;2632;51.666;7.146;2023-04-03T04:18:11;7.53;;;2.40;;
5225;SDS011;2632;51.666;7.146;2023-04-03T04:20:38;9.53;;;1.63;;
5225;SDS011;2632;51.666;7.146;2023-04-03T04:23:04;4.10;;;1.77;;
5225;SDS011;2632;51.666;7.146;2023-04-03T04:25:31;5.33;;;1.83;;
5225;SDS011;2632;51.666;7.146;2023-04-03T04:27:58;3.07;;;1.40;;
5225;SDS011;2632;51.666;7.146;2023-04-03T04:30:25;4.60;;;1.37;;
5225;SDS011;2632;51.666;7.146;2023-04-03T04:32:53;3.70;;;1.30;;
5225;SDS011;2632;51.666;7.146;2023-04-03T04:35:20;4.60;;;1.97;;
5225;SDS011;2632;51.666;7.146;2023-04-03T04:37:47;4.37;;;1.60;;
5225;SDS011;2632;51.666;7.146;2023-04-03T04:40:13;5.50;;;2.43;;
5225;SDS011;2632;51.666;7.146;2023-04-03T04:42:40;5.17;;;2.10;;
5225;SDS011;2632;51.666;7.146;2023-04-03T04:45:07;7.73;;;2.00;;
5225;SDS011;2632;51.666;7.146;2023-04-03T04:47:34;6.90;;;1.80;;
5225;SDS011;2632;51.666;7.146;2023-04-03T04:50:00;10.90;;;1.60;;
5225;SDS011;2632;51.666;7.146;2023-04-03T04:52:27;3.87;;;1.73;;
5225;SDS011;2632;51.666;7.146;2023-04-03T04:54:54;6.00;;;1.30;;
5225;SDS011;2632;51.666;7.146;2023-04-03T04:57:20;11.27;;;2.10;;
5225;SDS011;2632;51.666;7.146;2023-04-03T04:59:47;8.77;;;2.37;;
5225;SDS011;2632;51.666;7.146;2023-04-03T05:02:14;5.77;;;1.80;;
5225;SDS011;2632;51.666;7.146;2023-04-03T05:04:41;4.40;;;1.90;;
5225;SDS011;2632;51.666;7.146;2023-04-03T05:07:08;4.00;;;1.80;;
5225;SDS011;2632;51.666;7.146;2023-04-03T05:09:34;5.90;;;1.73;;
5225;SDS011;2632;51.666;7.146;2023-04-03T05:12:01;9.40;;;2.00;;
5225;SDS011;2632;51.666;7.146;2023-04-03T05:14:28;4.60;;;1.60;;
5225;SDS011;2632;51.666;7.146;2023-04-03T05:16:56;5.50;;;1.90;;
5225;SDS011;2632;51.666;7.146;2023-04-03T05:19:23;3.23;;;1.37;;
5225;SDS011;2632;51.666;7.146;2023-04-03T05:21:50;4.63;;;1.97;;
5225;SDS011;2632;51.666;7.146;2023-04-03T05:24:17;4.30;;;1.90;;
5225;SDS011;2632;51.666;7.146;2023-04-03T05:26:44;6.63;;;2.00;;
5225;SDS011;2632;51.666;7.146;2023-04-03T05:29:10;4.60;;;1.20;;
5225;SDS011;2632;51.666;7.146;2023-04-03T05:31:37;4.80;;;1.93;;
5225;SDS011;2632;51.666;7.146;2023-04-03T05:34:04;6.17;;;1.77;;
5225;SDS011;2632;51.666;7.146;2023-04-03T05:36:31;2.50;;;1.50;;
5225;SDS011;2632;51.666;7.146;2023-04-03T05:38:58;6.90;;;1.70;;
5225;SDS011;2632;51.666;7.146;2023-04-03T05:41:25;5.03;;;1.90;;
5225;SDS011;2632;51.666;7.146;2023-04-03T05:43:52;3.73;;;1.80;;
5225;SDS011;2632;51.666;7.146;2023-04-03T05:46:18;6.40;;;1.50;;
5225;SDS011;2632;51.666;7.146;2023-04-03T05:48:46;4.10;;;1.60;;
5225;SDS011;2632;51.666;7.146;2023-04-03T05:51:23;4.20;;;1.80;;
5225;SDS011;2632;51.666;7.146;2023-04-03T05:53:55;2.87;;;1.67;;
5225;SDS011;2632;51.666;7.146;2023-04-03T05:56:27;3.10;;;1.37;;
5225;SDS011;2632;51.666;7.146;2023-04-03T05:58:53;4.83;;;1.27;;
5225;SDS011;2632;51.666;7.146;2023-04-03T06:01:21;3.93;;;1.40;;
5225;SDS011;2632;51.666;7.146;2023-04-03T06:03:47;3.60;;;1.70;;
5225;SDS011;2632;51.666;7.146;2023-04-03T06:06:14;3.67;;;1.30;;
5225;SDS011;2632;51.666;7.146;2023-04-03T06:08:41;3.40;;;1.27;;
5225;SDS011;2632;51.666;7.146;2023-04-03T06:11:11;2.70;;;1.20;;
5225;SDS011;2632;51.666;7.146;2023-04-03T06:13:38;5.07;;;1.67;;
5225;SDS011;2632;51.666;7.146;2023-04-03T06:16:05;3.30;;;1.33;;
5225;SDS011;2632;51.666;7.146;2023-04-03T06:18:32;10.53;;;1.53;;
5225;SDS011;2632;51.666;7.146;2023-04-03T06:20:58;6.00;;;1.97;;
5225;SDS011;2632;51.666;7.146;2023-04-03T06:23:26;4.47;;;1.30;;
5225;SDS011;2632;51.666;7.146;2023-04-03T06:25:53;4.30;;;1.57;;
5225;SDS011;2632;51.666;7.146;2023-04-03T06:28:20;5.77;;;1.20;;
5225;SDS011;2632;51.666;7.146;2023-04-03T06:30:47;4.10;;;1.30;;
5225;SDS011;2632;51.666;7.146;2023-04-03T06:33:13;3.70;;;1.40;;
5225;SDS011;2632;51.666;7.146;2023-04-03T06:35:40;4.20;;;1.63;;
5225;SDS011;2632;51.666;7.146;2023-04-03T06:38:07;2.37;;;0.97;;
5225;SDS011;2632;51.666;7.146;2023-04-03T06:40:36;2.53;;;1.10;;
5225;SDS011;2632;51.666;7.146;2023-04-03T06:43:03;3.10;;;1.20;;
5225;SDS011;2632;51.666;7.146;2023-04-03T06:45:31;4.97;;;1.37;;
5225;SDS011;2632;51.666;7.146;2023-04-03T06:47:57;3.90;;;1.57;;
5225;SDS011;2632;51.666;7.146;2023-04-03T06:50:24;6.23;;;1.60;;
5225;SDS011;2632;51.666;7.146;2023-04-03T06:52:51;2.07;;;1.13;;
5225;SDS011;2632;51.666;7.146;2023-04-03T06:55:17;6.40;;;1.57;;
5225;SDS011;2632;51.666;7.146;2023-04-03T06:57:44;4.13;;;1.57;;
5225;SDS011;2632;51.666;7.146;2023-04-03T07:00:11;3.13;;;1.77;;
5225;SDS011;2632;51.666;7.146;2023-04-03T07:02:39;4.20;;;1.40;;
5225;SDS011;2632;51.666;7.146;2023-04-03T07:05:06;3.70;;;1.53;;
5225;SDS011;2632;51.666;7.146;2023-04-03T07:07:33;6.83;;;1.30;;
5225;SDS011;2632;51.666;7.146;2023-04-03T07:10:00;2.50;;;1.30;;
5225;SDS011;2632;51.666;7.146;2023-04-03T07:12:27;2.73;;;1.20;;
5225;SDS011;2632;51.666;7.146;2023-04-03T07:14:53;5.00;;;1.40;;
5225;SDS011;2632;51.666;7.146;2023-04-03T07:17:20;4.83;;;1.50;;
5225;SDS011;2632;51.666;7.146;2023-04-03T07:19:47;4.37;;;1.57;;
5225;SDS011;2632;51.666;7.146;2023-04-03T07:22:14;7.00;;;2.00;;
5225;SDS011;2632;51.666;7.146;2023-04-03T07:24:40;2.77;;;1.40;;
5225;SDS011;2632;51.666;7.146;2023-04-03T07:27:07;6.80;;;2.07;;
5225;SDS011;2632;51.666;7.146;2023-04-03T07:29:34;5.60;;;1.47;;
5225;SDS011;2632;51.666;7.146;2023-04-03T07:32:01;2.60;;;1.60;;
5225;SDS011;2632;51.666;7.146;2023-04-03T07:34:29;7.37;;;2.37;;
5225;SDS011;2632;51.666;7.146;2023-04-03T07:36:56;4.17;;;1.63;;
5225;SDS011;2632;51.666;7.146;2023-04-03T07:39:23;4.97;;;1.33;;
5225;SDS011;2632;51.666;7.146;2023-04-03T07:41:50;3.30;;;1.40;;
5225;SDS011;2632;51.666;7.146;2023-04-03T07:44:17;5.63;;;1.60;;
5225;SDS011;2632;51.666;7.146;2023-04-03T07:46:44;1.93;;;0.90;;
5225;SDS011;2632;51.666;7.146;2023-04-03T07:49:11;1.73;;;1.23;;
5225;SDS011;2632;51.666;7.146;2023-04-03T07:51:37;2.40;;;1.23;;
5225;SDS011;2632;51.666;7.146;2023-04-03T07:54:04;2.97;;;1.03;;
5225;SDS011;2632;51.666;7.146;2023-04-03T07:56:30;4.40;;;1.10;;
5225;SDS011;2632;51.666;7.146;2023-04-03T07:58:58;6.00;;;1.80;;
5225;SDS011;2632;51.666;7.146;2023-04-03T08:01:24;1.53;;;1.00;;
5225;SDS011;2632;51.666;7.146;2023-04-03T08:03:51;5.37;;;1.40;;
5225;SDS011;2632;51.666;7.146;2023-04-03T08:06:18;3.53;;;1.30;;
5225;SDS011;2632;51.666;7.146;2023-04-03T08:08:58;4.80;;;1.63;;
5225;SDS011;2632;51.666;7.146;2023-04-03T08:11:25;2.63;;;1.30;;
5225;SDS011;2632;51.666;7.146;2023-04-03T08:13:52;2.17;;;1.17;;
5225;SDS011;2632;51.666;7.146;2023-04-03T08:16:20;3.57;;;1.70;;
5225;SDS011;2632;51.666;7.146;2023-04-03T08:18:49;1.70;;;1.20;;
5225;SDS011;2632;51.666;7.146;2023-04-03T08:21:16;4.73;;;1.70;;
5225;SDS011;2632;51.666;7.146;2023-04-03T08:23:43;1.47;;;1.07;;
5225;SDS011;2632;51.666;7.146;2023-04-03T08:26:10;2.60;;;1.47;;
5225;SDS011;2632;51.666;7.146;2023-04-03T08:28:39;3.23;;;1.43;;
5225;SDS011;2632;51.666;7.146;2023-04-03T08:31:07;3.00;;;1.30;;
5225;SDS011;2632;51.666;7.146;2023-04-03T08:33:38;2.97;;;1.40;;
5225;SDS011;2632;51.666;7.146;2023-04-03T08:36:06;2.60;;;1.10;;
5225;SDS011;2632;51.666;7.146;2023-04-03T08:38:34;1.30;;;1.00;;
5225;SDS011;2632;51.666;7.146;2023-04-03T08:41:04;2.80;;;1.17;;
5225;SDS011;2632;51.666;7.146;2023-04-03T08:43:53;4.60;;;1.40;;
5225;SDS011;2632;51.666;7.146;2023-04-03T08:46:26;3.37;;;1.20;;
5225;SDS011;2632;51.666;7.146;2023-04-03T08:49:39;3.13;;;1.40;;
5225;SDS011;2632;51.666;7.146;2023-04-03T08:52:09;5.20;;;1.10;;
5225;SDS011;2632;51.666;7.146;2023-04-03T08:54:48;3.23;;;1.30;;
5225;SDS011;2632;51.666;7.146;2023-04-03T09:00:00;2.03;;;1.27;;
5225;SDS011;2632;51.666;7.146;2023-04-03T09:02:33;4.87;;;1.13;;
5225;SDS011;2632;51.666;7.146;2023-04-03T09:05:11;3.63;;;1.33;;
5225;SDS011;2632;51.666;7.146;2023-04-03T09:07:42;4.20;;;1.10;;
5225;SDS011;2632;51.666;7.146;2023-04-03T09:10:15;1.77;;;1.03;;
5225;SDS011;2632;51.666;7.146;2023-04-03T09:12:53;2.13;;;1.20;;
5225;SDS011;2632;51.666;7.146;2023-04-03T09:15:45;3.27;;;1.40;;
5225;SDS011;2632;51.666;7.146;2023-04-03T09:18:13;3.40;;;1.37;;
5225;SDS011;2632;51.666;7.146;2023-04-03T09:23:46;4.10;;;1.53;;
5225;SDS011;2632;51.666;7.146;2023-04-03T09:26:18;2.50;;;1.10;;
5225;SDS011;2632;51.666;7.146;2023-04-03T09:28:49;2.27;;;1.07;;
5225;SDS011;2632;51.666;7.146;2023-04-03T09:33:47;5.50;;;1.30;;
5225;SDS011;2632;51.666;7.146;2023-04-03T09:39:09;1.20;;;0.80;;
5225;SDS011;2632;51.666;7.146;2023-04-03T09:42:13;1.37;;;0.90;;
5225;SDS011;2632;51.666;7.146;2023-04-03T09:44:48;2.17;;;1.00;;
5225;SDS011;2632;51.666;7.146;2023-04-03T09:49:49;1.47;;;1.10;;
5225;SDS011;2632;51.666;7.146;2023-04-03T09:52:20;0.93;;;0.60;;
5225;SDS011;2632;51.666;7.146;2023-04-03T09:54:50;2.43;;;1.00;;
5225;SDS011;2632;51.666;7.146;2023-04-03T09:57:16;1.40;;;0.83;;
5225;SDS011;2632;51.666;7.146;2023-04-03T09:59:46;1.90;;;1.00;;
5225;SDS011;2632;51.666;7.146;2023-04-03T10:02:36;1.43;;;0.80;;
5225;SDS011;2632;51.666;7.146;2023-04-03T10:05:26;2.70;;;0.80;;
5225;SDS011;2632;51.666;7.146;2023-04-03T10:10:40;1.77;;;0.93;;
5225;SDS011;2632;51.666;7.146;2023-04-03T10:13:10;2.30;;;0.80;;
5225;SDS011;2632;51.666;7.146;2023-04-03T10:15:56;2.60;;;0.70;;
5225;SDS011;2632;51.666;7.146;2023-04-03T10:21:15;1.07;;;0.80;;
5225;SDS011;2632;51.666;7.146;2023-04-03T10:23:59;1.97;;;0.90;;
5225;SDS011;2632;51.666;7.146;2023-04-03T10:26:41;2.90;;;1.47;;
5225;SDS011;2632;51.666;7.146;2023-04-03T10:32:26;2.10;;;0.80;;
5225;SDS011;2632;51.666;7.146;2023-04-03T10:35:05;2.10;;;0.73;;
5225;SDS011;2632;51.666;7.146;2023-04-03T10:45:53;1.93;;;1.13;;
5225;SDS011;2632;51.666;7.146;2023-04-03T10:48:41;3.00;;;0.97;;
5225;SDS011;2632;51.666;7.146;2023-04-03T10:51:47;0.93;;;0.80;;
5225;SDS011;2632;51.666;7.146;2023-04-03T10:54:29;2.33;;;1.07;;
5225;SDS011;2632;51.666;7.146;2023-04-03T10:57:08;3.07;;;1.10;;
5225;SDS011;2632;51.666;7.146;2023-04-03T11:05:07;3.50;;;1.37;;
5225;SDS011;2632;51.666;7.146;2023-04-03T11:07:46;3.37;;;1.20;;
5225;SDS011;2632;51.666;7.146;2023-04-03T11:10:29;1.30;;;1.10;;
5225;SDS011;2632;51.666;7.146;2023-04-03T11:13:07;1.77;;;1.37;;
5225;SDS011;2632;51.666;7.146;2023-04-03T11:15:39;3.60;;;1.03;;
5225;SDS011;2632;51.666;7.146;2023-04-03T11:18:14;1.37;;;0.90;;
5225;SDS011;2632;51.666;7.146;2023-04-03T11:20:47;2.33;;;1.00;;
5225;SDS011;2632;51.666;7.146;2023-04-03T11:23:28;2.13;;;1.10;;
5225;SDS011;2632;51.666;7.146;2023-04-03T11:26:18;1.13;;;0.80;;
5225;SDS011;2632;51.666;7.146;2023-04-03T11:28:51;1.13;;;0.80;;
5225;SDS011;2632;51.666;7.146;2023-04-03T11:31:24;3.07;;;0.90;;
5225;SDS011;2632;51.666;7.146;2023-04-03T11:36:33;1.50;;;0.90;;
5225;SDS011;2632;51.666;7.146;2023-04-03T11:39:22;0.90;;;0.70;;
5225;SDS011;2632;51.666;7.146;2023-04-03T11:41:52;4.07;;;0.90;;
5225;SDS011;2632;51.666;7.146;2023-04-03T11:44:36;1.80;;;0.83;;
5225;SDS011;2632;51.666;7.146;2023-04-03T11:47:05;1.60;;;0.70;;
5225;SDS011;2632;51.666;7.146;2023-04-03T12:05:49;7.03;;;0.87;;
5225;SDS011;2632;51.666;7.146;2023-04-03T12:22:10;4.50;;;1.27;;
5225;SDS011;2632;51.666;7.146;2023-04-03T12:24:48;1.30;;;0.97;;
5225;SDS011;2632;51.666;7.146;2023-04-03T12:27:27;3.33;;;1.10;;
5225;SDS011;2632;51.666;7.146;2023-04-03T12:29:58;2.30;;;0.90;;
5225;SDS011;2632;51.666;7.146;2023-04-03T12:38:10;0.70;;;0.70;;
5225;SDS011;2632;51.666;7.146;2023-04-03T12:43:59;4.23;;;1.20;;
5225;SDS011;2632;51.666;7.146;2023-04-03T12:46:45;1.53;;;1.10;;
5225;SDS011;2632;51.666;7.146;2023-04-03T12:52:30;3.80;;;0.97;;
5225;SDS011;2632;51.666;7.146;2023-04-03T12:55:07;1.30;;;0.70;;
5225;SDS011;2632;51.666;7.146;2023-04-03T12:57:44;1.20;;;0.77;;
5225;SDS011;2632;51.666;7.146;2023-04-03T13:00:18;1.10;;;0.80;;
5225;SDS011;2632;51.666;7.146;2023-04-03T13:03:00;1.20;;;0.80;;
5225;SDS011;2632;51.666;7.146;2023-04-03T13:05:28;3.43;;;1.10;;
5225;SDS011;2632;51.666;7.146;2023-04-03T13:08:03;1.43;;;1.00;;
5225;SDS011;2632;51.666;7.146;2023-04-03T13:10:42;1.43;;;0.90;;
5225;SDS011;2632;51.666;7.146;2023-04-03T13:13:13;1.07;;;0.77;;
5225;SDS011;2632;51.666;7.146;2023-04-03T13:15:45;1.67;;;0.80;;
5225;SDS011;2632;51.666;7.146;2023-04-03T13:18:22;1.83;;;0.90;;
5225;SDS011;2632;51.666;7.146;2023-04-03T13:21:17;1.20;;;0.80;;
5225;SDS011;2632;51.666;7.146;2023-04-03T13:23:48;0.93;;;0.77;;
5225;SDS011;2632;51.666;7.146;2023-04-03T13:26:24;1.47;;;0.77;;
5225;SDS011;2632;51.666;7.146;2023-04-03T13:28:57;1.60;;;0.80;;
5225;SDS011;2632;51.666;7.146;2023-04-03T13:31:30;1.50;;;0.80;;
5225;SDS011;2632;51.666;7.146;2023-04-03T13:34:16;0.80;;;0.80;;
5225;SDS011;2632;51.666;7.146;2023-04-03T13:42:01;4.10;;;1.20;;
5225;SDS011;2632;51.666;7.146;2023-04-03T13:44:41;5.47;;;0.83;;
5225;SDS011;2632;51.666;7.146;2023-04-03T13:49:38;1.53;;;1.03;;
5225;SDS011;2632;51.666;7.146;2023-04-03T13:54:58;1.80;;;1.00;;
5225;SDS011;2632;51.666;7.146;2023-04-03T13:57:28;1.20;;;1.10;;
5225;SDS011;2632;51.666;7.146;2023-04-03T13:59:55;1.90;;;0.87;;
5225;SDS011;2632;51.666;7.146;2023-04-03T14:02:28;2.20;;;1.10;;
5225;SDS011;2632;51.666;7.146;2023-04-03T14:04:58;2.10;;;1.17;;
5225;SDS011;2632;51.666;7.146;2023-04-03T14:07:28;2.80;;;1.30;;
5225;SDS011;2632;51.666;7.146;2023-04-03T14:09:57;5.73;;;1.10;;
5225;SDS011;2632;51.666;7.146;2023-04-03T14:15:03;1.73;;;0.90;;
5225;SDS011;2632;51.666;7.146;2023-04-03T14:17:33;2.00;;;1.00;;
5225;SDS011;2632;51.666;7.146;2023-04-03T14:20:01;1.80;;;1.07;;
5225;SDS011;2632;51.666;7.146;2023-04-03T14:22:29;1.70;;;0.90;;
5225;SDS011;2632;51.666;7.146;2023-04-03T14:24:57;3.13;;;1.47;;
5225;SDS011;2632;51.666;7.146;2023-04-03T14:27:29;1.50;;;1.27;;
5225;SDS011;2632;51.666;7.146;2023-04-03T14:30:01;2.70;;;1.07;;
5225;SDS011;2632;51.666;7.146;2023-04-03T14:32:30;2.97;;;0.80;;
5225;SDS011;2632;51.666;7.146;2023-04-03T14:34:56;3.73;;;1.00;;
5225;SDS011;2632;51.666;7.146;2023-04-03T14:37:25;2.30;;;0.83;;
5225;SDS011;2632;51.666;7.146;2023-04-03T14:39:54;3.03;;;1.50;;
5225;SDS011;2632;51.666;7.146;2023-04-03T14:42:23;1.30;;;0.87;;
5225;SDS011;2632;51.666;7.146;2023-04-03T14:44:58;1.87;;;0.83;;
5225;SDS011;2632;51.666;7.146;2023-04-03T14:47:26;1.40;;;0.80;;
5225;SDS011;2632;51.666;7.146;2023-04-03T14:49:58;6.83;;;1.00;;
5225;SDS011;2632;51.666;7.146;2023-04-03T14:52:33;1.10;;;1.00;;
5225;SDS011;2632;51.666;7.146;2023-04-03T14:55:02;3.93;;;0.97;;
5225;SDS011;2632;51.666;7.146;2023-04-03T14:57:31;2.27;;;0.87;;
5225;SDS011;2632;51.666;7.146;2023-04-03T14:59:59;3.00;;;0.83;;
5225;SDS011;2632;51.666;7.146;2023-04-03T15:02:34;3.30;;;1.07;;
5225;SDS011;2632;51.666;7.146;2023-04-03T15:05:06;7.17;;;1.30;;
5225;SDS011;2632;51.666;7.146;2023-04-03T15:07:36;2.47;;;0.70;;
5225;SDS011;2632;51.666;7.146;2023-04-03T15:12:48;7.57;;;1.40;;
5225;SDS011;2632;51.666;7.146;2023-04-03T15:15:16;1.60;;;1.10;;
5225;SDS011;2632;51.666;7.146;2023-04-03T15:17:45;1.43;;;1.10;;
5225;SDS011;2632;51.666;7.146;2023-04-03T15:20:25;3.70;;;1.37;;
5225;SDS011;2632;51.666;7.146;2023-04-03T15:22:53;2.97;;;1.73;;
5225;SDS011;2632;51.666;7.146;2023-04-03T15:25:22;6.37;;;1.13;;
5225;SDS011;2632;51.666;7.146;2023-04-03T15:27:49;1.73;;;1.00;;
5225;SDS011;2632;51.666;7.146;2023-04-03T15:30:17;2.90;;;1.20;;
5225;SDS011;2632;51.666;7.146;2023-04-03T15:32:45;1.80;;;1.03;;
5225;SDS011;2632;51.666;7.146;2023-04-03T15:35:12;4.83;;;1.03;;
5225;SDS011;2632;51.666;7.146;2023-04-03T15:37:39;1.80;;;1.10;;
5225;SDS011;2632;51.666;7.146;2023-04-03T15:40:07;3.43;;;1.20;;
5225;SDS011;2632;51.666;7.146;2023-04-03T15:42:35;1.50;;;1.10;;
5225;SDS011;2632;51.666;7.146;2023-04-03T15:45:01;1.27;;;1.10;;
5225;SDS011;2632;51.666;7.146;2023-04-03T15:47:28;1.17;;;1.07;;
5225;SDS011;2632;51.666;7.146;2023-04-03T15:49:55;2.27;;;1.07;;
5225;SDS011;2632;51.666;7.146;2023-04-03T15:52:22;3.40;;;1.23;;
5225;SDS011;2632;51.666;7.146;2023-04-03T15:54:49;2.40;;;1.30;;
5225;SDS011;2632;51.666;7.146;2023-04-03T15:57:16;7.20;;;2.53;;
5225;SDS011;2632;51.666;7.146;2023-04-03T15:59:42;2.73;;;1.70;;
5225;SDS011;2632;51.666;7.146;2023-04-03T16:02:09;2.57;;;1.00;;
5225;SDS011;2632;51.666;7.146;2023-04-03T16:04:39;4.53;;;3.00;;
5225;SDS011;2632;51.666;7.146;2023-04-03T16:07:06;2.70;;;1.10;;
5225;SDS011;2632;51.666;7.146;2023-04-03T16:09:33;1.63;;;0.90;;
5225;SDS011;2632;51.666;7.146;2023-04-03T16:12:01;1.20;;;1.10;;
5225;SDS011;2632;51.666;7.146;2023-04-03T16:14:28;2.20;;;1.33;;
5225;SDS011;2632;51.666;7.146;2023-04-03T16:16:56;1.43;;;1.00;;
5225;SDS011;2632;51.666;7.146;2023-04-03T16:19:25;4.70;;;1.70;;
5225;SDS011;2632;51.666;7.146;2023-04-03T16:21:52;5.43;;;2.20;;
5225;SDS011;2632;51.666;7.146;2023-04-03T16:24:20;3.10;;;1.10;;
5225;SDS011;2632;51.666;7.146;2023-04-03T16:26:46;1.93;;;1.20;;
5225;SDS011;2632;51.666;7.146;2023-04-03T16:29:13;3.70;;;1.70;;
5225;SDS011;2632;51.666;7.146;2023-04-03T16:31:39;1.70;;;1.13;;
5225;SDS011;2632;51.666;7.146;2023-04-03T16:34:06;2.77;;;1.53;;
5225;SDS011;2632;51.666;7.146;2023-04-03T16:36:33;1.50;;;1.00;;
5225;SDS011;2632;51.666;7.146;2023-04-03T16:38:59;3.17;;;1.70;;
5225;SDS011;2632;51.666;7.146;2023-04-03T16:41:26;3.23;;;1.53;;
5225;SDS011;2632;51.666;7.146;2023-04-03T16:43:53;2.43;;;1.30;;
5225;SDS011;2632;51.666;7.146;2023-04-03T16:46:19;1.93;;;1.20;;
5225;SDS011;2632;51.666;7.146;2023-04-03T16:48:46;4.10;;;1.30;;
5225;SDS011;2632;51.666;7.146;2023-04-03T16:51:13;5.13;;;1.73;;
5225;SDS011;2632;51.666;7.146;2023-04-03T16:53:39;2.77;;;1.60;;
5225;SDS011;2632;51.666;7.146;2023-04-03T16:56:06;4.50;;;1.10;;
5225;SDS011;2632;51.666;7.146;2023-04-03T16:58:32;4.40;;;1.30;;
5225;SDS011;2632;51.666;7.146;2023-04-03T17:01:07;1.53;;;1.03;;
5225;SDS011;2632;51.666;7.146;2023-04-03T17:03:35;2.23;;;1.10;;
5225;SDS011;2632;51.666;7.146;2023-04-03T17:06:02;1.20;;;1.10;;
5225;SDS011;2632;51.666;7.146;2023-04-03T17:08:28;1.93;;;1.00;;
5225;SDS011;2632;51.666;7.146;2023-04-03T17:10:55;1.90;;;1.10;;
5225;SDS011;2632;51.666;7.146;2023-04-03T17:13:21;2.20;;;1.43;;